Time;durP1;ratioP1;P1;durP2;ratioP2;P2;SDS_P1;SDS_P2;PMS_P1;PMS_P2;Temp;Humidity;BMP_temperature;BMP_pressure;BME280_temperature;BME280_humidity;BME280_pressure;Samples;Min_cycle;Max_cycle;Signal;HPM_P1;HPM_P2
2022/10/19 00:00:45;;;;;;;10.23;2.13;;;9.40;99.90;;;;;;5126124;27;20035;-64
2022/10/19 00:03:11;;;;;;;7.10;1.67;;;9.40;99.90;;;;;;5121650;27;20065;-64
2022/10/19 00:05:37;;;;;;;11.75;1.40;;;9.30;99.90;;;;;;5128596;27;20031;-64
2022/10/19 00:08:02;;;;;;;9.55;1.50;;;9.30;99.90;;;;;;5126469;27;20112;-64
2022/10/19 00:10:28;;;;;;;4.80;1.40;;;9.20;99.90;;;;;;5121245;27;20050;-64
2022/10/19 00:12:54;;;;;;;7.88;2.17;;;9.20;99.90;;;;;;5123731;27;20074;-64
2022/10/19 00:15:20;;;;;;;7.60;1.85;;;9.20;99.90;;;;;;5115946;27;20035;-64
2022/10/19 00:17:45;;;;;;;8.43;1.73;;;9.10;99.90;;;;;;5126153;27;20114;-64
2022/10/19 00:20:11;;;;;;;7.60;1.90;;;9.10;99.90;;;;;;5119297;27;20555;-63
2022/10/19 00:22:37;;;;;;;14.45;1.95;;;9.00;99.90;;;;;;5121469;27;20120;-64
2022/10/19 00:25:03;;;;;;;9.38;2.05;;;8.90;99.90;;;;;;5127778;27;20102;-64
2022/10/19 00:27:30;;;;;;;9.93;1.95;;;8.90;99.90;;;;;;5120995;27;20055;-64
2022/10/19 00:29:55;;;;;;;11.23;2.00;;;8.90;99.90;;;;;;5127137;27;20074;-64
2022/10/19 00:32:21;;;;;;;11.32;2.40;;;8.90;99.90;;;;;;5122779;27;20070;-65
2022/10/19 00:34:47;;;;;;;10.88;1.70;;;8.80;99.90;;;;;;5121708;27;20394;-64
2022/10/19 00:37:12;;;;;;;8.50;2.20;;;8.80;99.90;;;;;;5121864;27;20544;-64
2022/10/19 00:39:38;;;;;;;9.30;1.90;;;8.80;99.90;;;;;;5116795;27;20051;-64
2022/10/19 00:42:04;;;;;;;13.55;1.88;;;8.70;99.90;;;;;;5121896;27;20043;-64
2022/10/19 00:44:30;;;;;;;10.85;1.80;;;8.70;99.90;;;;;;5120498;27;20074;-63
2022/10/19 00:47:02;;;;;;;7.75;1.77;;;8.70;99.90;;;;;;5122197;27;20039;-65
2022/10/19 00:49:32;;;;;;;8.90;1.90;;;8.80;99.90;;;;;;5121450;27;20505;-64
2022/10/19 00:52:04;;;;;;;7.55;2.10;;;8.80;99.90;;;;;;5118547;27;20066;-64
2022/10/19 00:54:36;;;;;;;9.02;2.00;;;8.80;99.90;;;;;;5126463;27;20091;-63
2022/10/19 00:57:03;;;;;;;8.35;2.13;;;8.90;99.90;;;;;;5118619;27;20555;-63
2022/10/19 00:59:33;;;;;;;6.68;2.28;;;8.90;99.90;;;;;;5146949;27;20152;-63
2022/10/19 01:02:01;;;;;;;9.07;2.75;;;9.00;99.90;;;;;;5128442;27;20082;-65
2022/10/19 01:04:29;;;;;;;7.78;1.80;;;9.00;99.90;;;;;;5124116;27;20035;-65
2022/10/19 01:06:56;;;;;;;9.02;2.17;;;9.10;99.90;;;;;;5118647;27;20050;-64
2022/10/19 01:09:22;;;;;;;6.05;2.05;;;9.00;99.90;;;;;;5120242;27;20135;-65
2022/10/19 01:12:12;;;;;;;6.13;2.03;;;9.10;99.90;;;;;;5115456;27;20115;-64
2022/10/19 01:14:57;;;;;;;13.77;2.30;;;9.10;99.90;;;;;;5120820;27;20099;-64
2022/10/19 01:17:38;;;;;;;11.52;2.40;;;9.20;99.90;;;;;;5121921;27;20118;-64
2022/10/19 01:20:32;;;;;;;5.75;1.88;;;9.20;99.90;;;;;;5110413;27;20043;-65
2022/10/19 01:23:03;;;;;;;10.45;2.13;;;9.20;99.90;;;;;;5117698;27;20049;-65
2022/10/19 01:26:13;;;;;;;8.07;2.00;;;9.20;99.90;;;;;;5118428;27;20085;-65
2022/10/19 01:29:13;;;;;;;13.13;2.45;;;9.20;99.90;;;;;;5018629;28;20501;-65
2022/10/19 01:32:17;;;;;;;7.32;2.20;;;9.20;99.90;;;;;;5118595;27;20039;-65
2022/10/19 01:35:05;;;;;;;10.65;2.50;;;9.20;99.90;;;;;;5085533;27;20138;-65
2022/10/19 01:37:34;;;;;;;8.75;2.38;;;9.20;99.90;;;;;;5098843;27;20086;-65
2022/10/19 01:40:03;;;;;;;10.68;2.50;;;9.20;99.90;;;;;;5115123;27;20046;-65
2022/10/19 01:42:37;;;;;;;7.85;2.28;;;9.20;99.90;;;;;;5117968;27;20038;-64
2022/10/19 01:45:10;;;;;;;4.40;2.17;;;9.30;99.90;;;;;;5123205;27;20544;-65
2022/10/19 01:47:45;;;;;;;5.95;1.90;;;9.30;99.90;;;;;;5111183;27;20431;-64
2022/10/19 01:50:26;;;;;;;13.93;2.95;;;9.30;99.90;;;;;;5114295;27;20336;-64
2022/10/19 01:52:54;;;;;;;7.85;2.60;;;9.30;99.90;;;;;;5123305;27;20116;-64
2022/10/19 01:55:21;;;;;;;8.57;2.60;;;9.40;99.90;;;;;;5118930;27;20514;-65
2022/10/19 01:57:50;;;;;;;11.02;2.22;;;9.40;99.90;;;;;;5113291;27;20039;-64
2022/10/19 02:00:17;;;;;;;10.15;2.35;;;9.40;99.90;;;;;;5116659;27;20039;-65
2022/10/19 02:02:49;;;;;;;8.73;2.20;;;9.40;99.90;;;;;;5121484;27;20034;-65
2022/10/19 02:05:19;;;;;;;9.80;2.30;;;9.50;99.90;;;;;;5115291;27;20039;-64
2022/10/19 02:07:51;;;;;;;10.05;2.20;;;9.50;99.90;;;;;;5114697;27;20042;-65
2022/10/19 02:10:19;;;;;;;10.00;2.25;;;9.50;99.90;;;;;;5124247;27;20109;-65
2022/10/19 02:12:45;;;;;;;7.50;3.30;;;9.50;99.90;;;;;;5119527;27;20531;-65
2022/10/19 02:15:16;;;;;;;7.28;2.47;;;9.40;99.90;;;;;;5113357;27;20039;-65
2022/10/19 02:17:46;;;;;;;5.72;1.80;;;9.50;99.90;;;;;;5117208;27;20122;-65
2022/10/19 02:20:13;;;;;;;9.90;2.30;;;9.40;99.90;;;;;;5114306;27;20123;-65
2022/10/19 02:22:39;;;;;;;12.23;2.40;;;9.40;99.90;;;;;;5120517;27;20057;-64
2022/10/19 02:25:06;;;;;;;7.38;2.00;;;9.40;99.90;;;;;;5124599;27;20051;-64
2022/10/19 02:27:32;;;;;;;8.00;2.10;;;9.40;99.90;;;;;;5118463;27;20035;-65
2022/10/19 02:29:58;;;;;;;10.70;2.58;;;9.40;99.90;;;;;;5118893;27;20039;-65
2022/10/19 02:32:25;;;;;;;4.13;1.80;;;9.40;99.90;;;;;;5102528;27;20301;-65
2022/10/19 02:34:51;;;;;;;6.00;1.73;;;9.40;99.90;;;;;;5122662;27;20109;-64
2022/10/19 02:37:17;;;;;;;8.38;2.53;;;9.40;99.90;;;;;;5113791;27;20344;-64
2022/10/19 02:39:42;;;;;;;8.00;2.10;;;9.40;99.90;;;;;;5119539;27;20039;-65
2022/10/19 02:42:16;;;;;;;11.10;1.90;;;9.40;99.90;;;;;;5116885;28;20122;-65
2022/10/19 02:44:58;;;;;;;7.68;2.10;;;9.50;99.90;;;;;;5113404;28;20146;-65
2022/10/19 02:47:33;;;;;;;9.52;2.55;;;9.40;99.90;;;;;;5112247;27;20422;-65
2022/10/19 02:49:58;;;;;;;;;;;9.40;99.90;;;;;;5118703;28;20103;-64
2022/10/19 02:52:24;;;;;;;7.60;2.03;;;9.40;99.90;;;;;;5119079;27;19946;-65
2022/10/19 02:54:50;;;;;;;6.43;1.98;;;9.40;99.90;;;;;;5122799;28;20075;-65
2022/10/19 02:57:20;;;;;;;5.05;2.13;;;9.40;99.90;;;;;;5120618;28;20043;-65
2022/10/19 02:59:46;;;;;;;8.23;1.98;;;9.40;99.90;;;;;;5125772;28;20084;-65
2022/10/19 03:02:16;;;;;;;6.32;2.30;;;9.40;99.90;;;;;;5121935;28;20031;-65
2022/10/19 03:04:45;;;;;;;7.75;2.17;;;9.40;99.90;;;;;;5114480;28;20514;-65
2022/10/19 03:07:16;;;;;;;11.35;2.75;;;9.50;99.90;;;;;;5126923;27;20043;-65
2022/10/19 03:09:43;;;;;;;5.55;2.20;;;9.30;99.90;;;;;;5113396;28;20541;-65
2022/10/19 03:12:09;;;;;;;8.13;2.65;;;9.40;99.90;;;;;;5121431;28;20035;-65
2022/10/19 03:14:35;;;;;;;6.57;2.60;;;9.30;99.90;;;;;;5116604;27;20616;-65
2022/10/19 03:17:01;;;;;;;11.25;2.35;;;9.40;99.90;;;;;;5122750;27;20115;-65
2022/10/19 03:19:27;;;;;;;10.75;2.53;;;9.30;99.90;;;;;;5123732;27;20142;-65
2022/10/19 03:21:53;;;;;;;6.60;2.80;;;9.30;99.90;;;;;;5118634;27;20054;-65
2022/10/19 03:24:19;;;;;;;6.93;2.30;;;9.40;99.90;;;;;;5116347;27;20148;-65
2022/10/19 03:26:44;;;;;;;5.55;2.20;;;9.30;99.90;;;;;;5124932;27;20038;-65
2022/10/19 03:29:10;;;;;;;8.52;2.92;;;9.30;99.90;;;;;;5124402;27;20038;-64
2022/10/19 03:31:36;;;;;;;9.50;2.47;;;9.30;99.90;;;;;;5127668;27;20037;-65
2022/10/19 03:34:02;;;;;;;8.13;2.20;;;9.40;99.90;;;;;;5122522;27;20039;-64
2022/10/19 03:36:32;;;;;;;6.43;2.10;;;9.30;99.90;;;;;;5119911;27;20039;-65
2022/10/19 03:39:02;;;;;;;6.93;2.03;;;9.40;99.90;;;;;;5125214;27;20035;-65
2022/10/19 03:41:30;;;;;;;13.45;2.63;;;9.40;99.90;;;;;;5121366;27;20506;-65
2022/10/19 03:43:56;;;;;;;7.93;2.17;;;9.40;99.90;;;;;;5119105;27;20046;-65
2022/10/19 03:46:22;;;;;;;8.27;2.35;;;9.40;99.90;;;;;;5101153;27;20053;-65
2022/10/19 03:48:48;;;;;;;10.77;2.88;;;9.40;99.90;;;;;;5124012;27;20402;-64
2022/10/19 03:51:17;;;;;;;6.53;2.65;;;9.50;99.90;;;;;;5115037;27;20047;-64
2022/10/19 03:53:43;;;;;;;5.95;1.90;;;9.40;99.90;;;;;;5116813;27;20074;-64
2022/10/19 03:56:16;;;;;;;7.32;2.30;;;9.50;99.90;;;;;;5122473;27;20037;-64
2022/10/19 03:58:44;;;;;;;8.20;2.20;;;9.50;99.90;;;;;;5102175;27;20056;-64
2022/10/19 04:01:15;;;;;;;13.25;2.78;;;9.50;99.90;;;;;;5117667;27;20035;-64
2022/10/19 04:03:40;;;;;;;7.57;2.38;;;9.50;99.90;;;;;;5125094;27;20122;-64
2022/10/19 04:06:13;;;;;;;11.45;2.85;;;9.40;99.90;;;;;;5122768;27;20110;-64
2022/10/19 04:08:39;;;;;;;6.78;2.30;;;9.50;99.90;;;;;;5126810;27;20067;-64
2022/10/19 04:11:09;;;;;;;10.02;2.42;;;9.50;99.90;;;;;;5119469;27;20356;-65
2022/10/19 04:13:35;;;;;;;11.13;3.13;;;9.50;99.90;;;;;;5122564;27;20068;-64
2022/10/19 04:16:01;;;;;;;11.38;2.80;;;9.50;99.90;;;;;;5124597;27;20043;-65
2022/10/19 04:18:27;;;;;;;8.70;3.08;;;9.50;99.90;;;;;;5119199;27;20023;-64
2022/10/19 04:21:02;;;;;;;5.97;2.50;;;9.50;99.90;;;;;;5115551;27;20047;-65
2022/10/19 04:23:30;;;;;;;7.97;2.20;;;9.50;99.90;;;;;;5118675;27;20034;-65
2022/10/19 04:26:05;;;;;;;6.63;2.22;;;9.50;99.90;;;;;;5121210;27;20119;-65
2022/10/19 04:28:31;;;;;;;8.73;2.40;;;9.50;99.90;;;;;;5118422;27;20043;-65
2022/10/19 04:31:00;;;;;;;7.68;2.35;;;9.50;99.90;;;;;;5125056;27;20036;-65
2022/10/19 04:33:25;;;;;;;9.02;2.42;;;9.50;99.90;;;;;;5120010;27;20039;-65
2022/10/19 04:36:01;;;;;;;6.68;2.10;;;9.50;99.90;;;;;;5119880;27;20035;-65
2022/10/19 04:38:28;;;;;;;8.40;2.33;;;9.50;99.90;;;;;;5114339;27;20446;-65
2022/10/19 04:40:54;;;;;;;8.45;2.63;;;9.50;99.90;;;;;;5115875;27;20047;-65
2022/10/19 04:43:20;;;;;;;5.15;2.20;;;9.50;99.90;;;;;;5125872;27;20038;-65
2022/10/19 04:45:46;;;;;;;7.15;2.30;;;9.40;99.90;;;;;;5120714;27;20040;-65
2022/10/19 04:48:11;;;;;;;8.90;3.03;;;9.40;99.90;;;;;;5114441;27;20040;-65
2022/10/19 04:50:37;;;;;;;5.10;1.95;;;9.40;99.90;;;;;;5118474;27;20051;-65
2022/10/19 04:53:03;;;;;;;9.00;2.78;;;9.30;99.90;;;;;;5117167;27;20049;-65
2022/10/19 04:55:28;;;;;;;9.38;2.70;;;9.30;99.90;;;;;;5120775;27;20115;-65
2022/10/19 04:57:54;;;;;;;7.97;2.65;;;9.30;99.90;;;;;;5117851;27;20470;-65
2022/10/19 05:00:20;;;;;;;4.20;2.00;;;9.30;99.90;;;;;;5124219;27;20035;-64
2022/10/19 05:02:46;;;;;;;5.07;2.30;;;9.30;99.90;;;;;;5116009;27;20043;-65
2022/10/19 05:05:13;;;;;;;8.25;2.40;;;9.30;99.90;;;;;;5119273;27;20074;-65
2022/10/19 05:07:39;;;;;;;11.85;2.47;;;9.30;99.90;;;;;;5128769;27;20559;-65
2022/10/19 05:10:06;;;;;;;5.40;2.30;;;9.20;99.90;;;;;;5117855;27;20047;-65
2022/10/19 05:12:32;;;;;;;7.75;2.08;;;9.20;99.90;;;;;;5117563;27;20058;-65
2022/10/19 05:14:58;;;;;;;8.95;2.42;;;9.10;99.90;;;;;;5123828;27;20031;-65
2022/10/19 05:17:24;;;;;;;6.05;2.15;;;9.10;99.90;;;;;;5113161;27;20043;-65
2022/10/19 05:19:49;;;;;;;5.38;1.55;;;9.10;99.90;;;;;;5116178;27;20498;-65
2022/10/19 05:22:15;;;;;;;8.52;2.10;;;9.10;99.90;;;;;;5119761;27;20047;-65
2022/10/19 05:24:41;;;;;;;4.20;1.38;;;9.10;99.90;;;;;;5126763;27;20497;-65
2022/10/19 05:27:06;;;;;;;8.20;1.95;;;9.00;99.90;;;;;;5114451;27;20530;-65
2022/10/19 05:29:32;;;;;;;8.10;1.92;;;9.10;99.90;;;;;;5119808;27;20042;-65
2022/10/19 05:31:58;;;;;;;12.63;2.03;;;9.10;99.90;;;;;;5122553;27;20081;-65
2022/10/19 05:34:24;;;;;;;10.57;2.15;;;9.10;99.90;;;;;;5119607;27;20085;-65
2022/10/19 05:36:49;;;;;;;10.52;1.98;;;9.00;99.90;;;;;;5117169;27;20145;-65
2022/10/19 05:39:16;;;;;;;9.35;1.50;;;9.00;99.90;;;;;;5116258;27;20043;-65
2022/10/19 05:41:46;;;;;;;8.25;1.33;;;9.10;99.90;;;;;;5122136;27;20681;-65
2022/10/19 05:44:20;;;;;;;7.90;1.60;;;9.10;99.90;;;;;;5113832;27;20199;-65
2022/10/19 05:46:47;;;;;;;9.10;1.92;;;9.10;99.90;;;;;;5118716;27;20031;-65
2022/10/19 05:49:14;;;;;;;7.72;1.23;;;9.10;99.90;;;;;;5118403;27;20367;-65
2022/10/19 05:51:40;;;;;;;7.00;1.50;;;9.20;99.90;;;;;;5119865;27;20107;-65
2022/10/19 05:54:07;;;;;;;10.90;1.42;;;9.20;99.90;;;;;;5118414;27;20039;-65
2022/10/19 05:56:33;;;;;;;6.30;1.30;;;9.20;99.90;;;;;;5113895;27;20039;-65
2022/10/19 05:59:01;;;;;;;9.85;1.40;;;9.30;99.90;;;;;;5118046;27;20043;-65
2022/10/19 06:01:29;;;;;;;12.93;1.80;;;9.30;99.90;;;;;;5117682;27;20494;-65
2022/10/19 06:03:56;;;;;;;12.95;1.67;;;9.30;99.90;;;;;;5123309;27;20506;-65
2022/10/19 06:06:23;;;;;;;9.75;1.30;;;9.40;99.90;;;;;;5114876;27;20139;-65
2022/10/19 06:08:50;;;;;;;11.43;1.30;;;9.40;99.90;;;;;;5116570;27;20039;-65
2022/10/19 06:11:22;;;;;;;10.68;1.73;;;9.40;99.90;;;;;;5121128;27;20058;-65
2022/10/19 06:13:49;;;;;;;8.50;1.52;;;9.40;99.90;;;;;;5115143;27;20078;-65
2022/10/19 06:16:17;;;;;;;15.00;1.77;;;9.40;99.90;;;;;;5118183;27;20036;-65
2022/10/19 06:18:44;;;;;;;12.10;1.40;;;9.40;99.90;;;;;;5119915;27;20047;-65
2022/10/19 06:21:14;;;;;;;11.27;1.17;;;9.40;99.90;;;;;;5118901;27;20031;-65
2022/10/19 06:23:40;;;;;;;12.32;1.45;;;9.40;99.90;;;;;;5116588;27;20062;-65
2022/10/19 06:26:13;;;;;;;14.25;1.38;;;9.50;99.90;;;;;;5122760;27;20221;-65
2022/10/19 06:28:40;;;;;;;7.78;1.13;;;9.50;99.90;;;;;;5120259;27;20047;-66
2022/10/19 06:31:07;;;;;;;11.85;1.35;;;9.60;99.90;;;;;;5121121;27;20039;-65
2022/10/19 06:33:33;;;;;;;10.13;1.52;;;9.60;99.90;;;;;;5112029;27;20055;-65
2022/10/19 06:36:13;;;;;;;11.43;1.63;;;9.60;99.90;;;;;;5117472;27;20467;-65
2022/10/19 06:38:40;;;;;;;10.52;1.77;;;9.70;99.90;;;;;;5119891;27;20091;-65
2022/10/19 06:41:06;;;;;;;7.35;1.13;;;9.70;99.90;;;;;;5121230;27;20405;-64
2022/10/19 06:43:32;;;;;;;11.82;1.63;;;9.70;99.90;;;;;;5101642;28;20637;-65
2022/10/19 06:45:58;;;;;;;7.93;1.30;;;9.80;99.90;;;;;;5113836;28;20047;-65
2022/10/19 06:48:24;;;;;;;12.57;1.23;;;9.80;99.90;;;;;;5116905;27;20056;-65
2022/10/19 06:51:00;;;;;;;11.77;1.65;;;9.90;99.90;;;;;;5120216;27;20338;-65
2022/10/19 06:53:27;;;;;;;9.98;1.65;;;9.90;99.90;;;;;;5123796;27;20061;-65
2022/10/19 06:56:00;;;;;;;13.43;1.65;;;9.90;99.90;;;;;;5120601;27;20053;-65
2022/10/19 06:58:26;;;;;;;14.65;1.50;;;10.00;99.90;;;;;;5124616;27;20043;-65
2022/10/19 07:00:56;;;;;;;13.48;1.38;;;10.00;99.90;;;;;;5126527;27;20043;-65
2022/10/19 07:03:23;;;;;;;11.73;1.63;;;10.10;99.90;;;;;;5124695;27;20051;-65
2022/10/19 07:05:56;;;;;;;11.88;1.95;;;10.10;99.90;;;;;;5122810;27;20431;-65
2022/10/19 07:08:23;;;;;;;13.07;1.33;;;10.20;99.90;;;;;;5126093;27;20050;-65
2022/10/19 07:10:53;;;;;;;11.80;1.55;;;10.20;99.90;;;;;;5122706;27;20059;-65
2022/10/19 07:13:19;;;;;;;8.75;1.20;;;10.30;99.90;;;;;;5121456;27;20039;-64
2022/10/19 07:15:45;;;;;;;12.10;1.65;;;10.30;99.90;;;;;;5124432;27;20605;-64
2022/10/19 07:18:10;;;;;;;12.70;1.60;;;10.40;99.90;;;;;;5124883;27;20031;-65
2022/10/19 07:20:36;;;;;;;9.68;1.45;;;10.40;99.90;;;;;;5122825;27;20396;-66
2022/10/19 07:23:02;;;;;;;10.38;1.40;;;10.50;99.90;;;;;;5119603;27;20441;-64
2022/10/19 07:25:29;;;;;;;12.00;1.60;;;10.50;99.90;;;;;;5126087;27;20127;-65
2022/10/19 07:27:55;;;;;;;12.68;1.48;;;10.60;99.90;;;;;;5122211;27;20043;-65
2022/10/19 07:30:21;;;;;;;10.23;1.73;;;10.60;99.90;;;;;;5129077;27;20438;-64
2022/10/19 07:32:46;;;;;;;10.82;1.33;;;10.70;99.90;;;;;;5116847;27;20076;-65
2022/10/19 07:35:12;;;;;;;14.52;1.52;;;10.80;99.90;;;;;;5126113;27;20062;-65
2022/10/19 07:37:38;;;;;;;8.82;1.35;;;10.90;99.90;;;;;;5124649;27;20043;-64
2022/10/19 07:40:04;;;;;;;8.75;1.40;;;11.00;99.90;;;;;;5122093;27;20039;-65
2022/10/19 07:42:30;;;;;;;9.35;0.93;;;11.10;99.90;;;;;;5118528;27;20042;-64
2022/10/19 07:44:55;;;;;;;11.00;1.38;;;11.20;99.90;;;;;;5122077;27;20367;-65
2022/10/19 07:47:21;;;;;;;10.23;1.52;;;11.20;99.90;;;;;;5127224;27;20038;-64
2022/10/19 07:49:47;;;;;;;10.73;1.45;;;11.30;99.90;;;;;;5125779;27;20057;-65
2022/10/19 07:52:12;;;;;;;8.18;1.23;;;11.30;99.90;;;;;;5120078;27;20471;-64
2022/10/19 07:54:38;;;;;;;12.13;1.45;;;11.30;99.90;;;;;;5126230;27;20034;-65
2022/10/19 07:57:04;;;;;;;10.23;1.60;;;11.40;99.90;;;;;;5120060;27;20432;-65
2022/10/19 07:59:29;;;;;;;12.77;1.70;;;11.50;99.90;;;;;;5117961;27;20498;-64
2022/10/19 08:01:56;;;;;;;13.93;2.38;;;11.70;99.90;;;;;;5119892;27;20035;-64
2022/10/19 08:04:22;;;;;;;12.43;1.50;;;11.90;99.90;;;;;;5124432;27;20032;-64
2022/10/19 08:06:48;;;;;;;11.45;1.65;;;12.10;99.90;;;;;;5117755;27;20529;-65
2022/10/19 08:09:14;;;;;;;15.30;2.50;;;12.30;99.90;;;;;;5114013;27;20063;-65
2022/10/19 08:11:40;;;;;;;10.02;1.50;;;12.50;99.90;;;;;;5125664;27;20051;-64
2022/10/19 08:14:06;;;;;;;10.55;1.27;;;12.60;99.90;;;;;;5122301;27;20035;-65
2022/10/19 08:16:33;;;;;;;13.15;1.52;;;12.60;99.90;;;;;;5123076;27;20495;-64
2022/10/19 08:19:01;;;;;;;11.57;1.55;;;12.70;99.90;;;;;;5116590;27;20111;-65
2022/10/19 08:21:29;;;;;;;12.80;1.23;;;12.80;99.90;;;;;;5119151;27;20044;-65
2022/10/19 08:23:55;;;;;;;7.40;1.33;;;12.70;99.90;;;;;;5123823;27;20049;-65
2022/10/19 08:26:21;;;;;;;7.65;1.20;;;12.70;99.90;;;;;;5121352;27;20563;-65
2022/10/19 08:28:47;;;;;;;7.80;1.38;;;12.80;99.90;;;;;;5118122;27;20569;-65
2022/10/19 08:31:18;;;;;;;10.40;1.38;;;13.00;99.90;;;;;;5123836;27;20031;-65
2022/10/19 08:33:44;;;;;;;11.75;1.30;;;13.20;99.90;;;;;;5121178;27;20066;-65
2022/10/19 08:36:12;;;;;;;14.05;1.73;;;13.30;99.90;;;;;;5117185;27;20127;-64
2022/10/19 08:38:38;;;;;;;8.05;1.50;;;13.30;99.90;;;;;;5116679;27;20031;-65
2022/10/19 08:41:34;;;;;;;13.45;1.45;;;13.40;99.90;;;;;;5124777;27;20070;-65
2022/10/19 08:44:18;;;;;;;12.32;1.80;;;13.40;99.90;;;;;;5124209;27;20100;-65
2022/10/19 08:46:50;;;;;;;8.30;1.13;;;13.40;99.90;;;;;;5129129;27;20470;-65
2022/10/19 08:49:21;;;;;;;7.32;1.02;;;13.30;99.90;;;;;;5119322;27;20044;-64
2022/10/19 08:51:57;;;;;;;11.82;1.73;;;13.20;99.90;;;;;;5123015;27;20035;-64
2022/10/19 08:54:28;;;;;;;6.82;1.00;;;13.20;99.90;;;;;;5119480;27;20040;-64
2022/10/19 08:57:25;;;;;;;9.73;1.35;;;13.60;99.90;;;;;;5124606;27;20396;-65
2022/10/19 08:59:58;;;;;;;10.23;1.95;;;13.70;99.90;;;;;;5108074;27;20051;-65
2022/10/19 09:02:52;;;;;;;10.40;1.77;;;13.60;99.90;;;;;;5123276;27;20040;-64
2022/10/19 09:05:31;;;;;;;10.40;1.50;;;13.50;99.90;;;;;;5114308;27;20285;-65
2022/10/19 09:07:58;;;;;;;10.07;1.45;;;13.40;99.90;;;;;;5123663;27;20036;-64
2022/10/19 09:10:31;;;;;;;7.82;1.52;;;13.40;99.90;;;;;;5120416;27;20055;-65
2022/10/19 09:12:58;;;;;;;8.88;1.25;;;13.30;99.90;;;;;;5116954;27;20120;-65
2022/10/19 09:15:39;;;;;;;7.20;1.40;;;13.20;99.90;;;;;;5125654;27;20034;-64
2022/10/19 09:18:10;;;;;;;9.38;2.13;;;13.10;99.90;;;;;;5120985;27;20036;-65
2022/10/19 09:20:43;;;;;;;11.30;1.33;;;13.00;99.90;;;;;;5122123;27;20039;-64
2022/10/19 09:23:33;;;;;;;12.30;2.13;;;13.00;99.90;;;;;;5121313;27;20050;-65
2022/10/19 09:25:59;;;;;;;9.65;1.55;;;12.90;99.90;;;;;;5115464;27;20485;-64
2022/10/19 09:28:24;;;;;;;10.15;1.50;;;12.90;99.90;;;;;;5120857;27;20113;-64
2022/10/19 09:30:53;;;;;;;8.32;1.60;;;12.90;99.90;;;;;;5123391;27;20047;-64
2022/10/19 09:33:29;;;;;;;9.40;1.48;;;12.90;99.90;;;;;;5124004;27;20040;-64
2022/10/19 09:35:57;;;;;;;10.43;1.30;;;12.90;99.90;;;;;;5119294;27;20031;-64
2022/10/19 09:38:26;;;;;;;7.22;1.20;;;12.80;99.90;;;;;;5118818;27;20424;-64
2022/10/19 09:40:52;;;;;;;8.73;1.33;;;12.80;99.90;;;;;;5120895;27;20043;-64
2022/10/19 09:43:20;;;;;;;11.32;1.58;;;12.90;99.90;;;;;;5116430;27;20047;-64
2022/10/19 09:46:14;;;;;;;8.93;1.48;;;13.00;99.90;;;;;;5121256;27;20028;-64
2022/10/19 09:48:52;;;;;;;10.43;1.55;;;13.10;99.90;;;;;;5118672;27;20043;-64
2022/10/19 09:51:19;;;;;;;9.10;1.23;;;13.20;99.90;;;;;;5127786;27;20077;-64
2022/10/19 09:53:53;;;;;;;11.20;1.35;;;13.20;99.90;;;;;;5123338;27;20391;-64
2022/10/19 09:56:25;;;;;;;12.45;1.10;;;13.30;99.90;;;;;;5117400;27;20042;-64
2022/10/19 09:58:53;;;;;;;6.40;0.90;;;13.30;99.90;;;;;;5117576;27;20039;-64
2022/10/19 10:01:37;;;;;;;9.43;1.45;;;13.40;99.90;;;;;;5119452;27;20035;-64
2022/10/19 10:04:07;;;;;;;6.57;1.02;;;13.70;99.90;;;;;;5119295;27;20495;-64
2022/10/19 10:06:34;;;;;;;11.15;1.63;;;13.70;99.90;;;;;;5120090;27;20368;-64
2022/10/19 10:09:00;;;;;;;6.60;1.00;;;13.70;99.90;;;;;;5118904;27;20062;-64
2022/10/19 10:11:47;;;;;;;9.30;1.17;;;13.70;99.90;;;;;;5115398;27;20063;-64
2022/10/19 10:14:25;;;;;;;6.90;1.23;;;13.60;99.90;;;;;;5116264;27;20459;-64
2022/10/19 10:17:02;;;;;;;7.28;0.90;;;13.60;99.90;;;;;;5123638;27;20118;-64
2022/10/19 10:19:31;;;;;;;9.07;1.13;;;13.60;99.90;;;;;;5118756;27;20463;-64
2022/10/19 10:21:58;;;;;;;9.50;1.40;;;13.70;99.90;;;;;;5115897;27;20035;-64
2022/10/19 10:24:27;;;;;;;6.80;1.20;;;13.70;99.90;;;;;;5119805;27;20087;-64
2022/10/19 10:26:56;;;;;;;6.43;0.90;;;13.60;99.90;;;;;;5123992;27;20082;-64
2022/10/19 10:29:25;;;;;;;5.45;0.82;;;13.60;99.90;;;;;;5118878;27;20071;-64
2022/10/19 10:31:59;;;;;;;9.60;1.13;;;13.70;99.90;;;;;;5151639;27;20054;-64
2022/10/19 10:34:40;;;;;;;5.78;1.02;;;14.20;99.90;;;;;;5118765;27;20059;-65
2022/10/19 10:37:30;;;;;;;7.38;0.90;;;14.40;99.90;;;;;;5121375;27;20035;-65
2022/10/19 10:39:57;;;;;;;8.38;1.48;;;14.30;99.90;;;;;;5118341;27;20376;-65
2022/10/19 10:42:35;;;;;;;5.00;0.95;;;14.20;99.90;;;;;;5118612;27;20079;-65
2022/10/19 10:45:01;;;;;;;4.38;0.70;;;14.10;99.90;;;;;;5120068;28;20088;-65
2022/10/19 10:47:28;;;;;;;6.63;0.82;;;14.10;99.90;;;;;;5119856;28;20040;-65
2022/10/19 10:50:00;;;;;;;6.15;1.00;;;14.00;99.90;;;;;;5114901;28;20479;-64
2022/10/19 10:52:29;;;;;;;6.75;1.00;;;14.00;99.90;;;;;;5114907;27;20075;-64
2022/10/19 10:55:07;;;;;;;6.95;0.88;;;13.90;99.90;;;;;;5123585;28;20035;-64
2022/10/19 10:57:40;;;;;;;5.63;0.82;;;13.90;99.90;;;;;;5116502;28;20127;-64
2022/10/19 11:00:16;;;;;;;4.65;1.30;;;13.80;99.90;;;;;;5114304;28;20475;-64
2022/10/19 11:02:54;;;;;;;7.25;1.17;;;13.70;99.90;;;;;;5120218;28;20078;-65
2022/10/19 11:05:33;;;;;;;9.27;1.08;;;13.60;99.90;;;;;;5120366;28;20080;-65
2022/10/19 11:08:11;;;;;;;7.93;1.52;;;13.70;99.90;;;;;;5122736;27;20130;-65
2022/10/19 11:10:52;;;;;;;10.15;1.02;;;14.10;99.90;;;;;;5116058;28;20043;-65
2022/10/19 11:13:32;;;;;;;10.85;1.40;;;14.30;99.90;;;;;;5117499;28;20528;-65
2022/10/19 11:16:01;;;;;;;8.43;1.30;;;14.20;99.90;;;;;;5122289;28;20427;-64
2022/10/19 11:18:41;;;;;;;8.88;1.33;;;14.50;99.90;;;;;;5115487;27;20084;-65
2022/10/19 11:21:33;;;;;;;11.98;2.75;;;14.60;99.90;;;;;;5124131;28;20035;-65
2022/10/19 11:24:11;;;;;;;5.20;1.15;;;14.60;99.90;;;;;;5119986;28;20084;-65
2022/10/19 11:26:39;;;;;;;5.47;1.05;;;14.80;99.90;;;;;;5122604;28;20031;-65
2022/10/19 11:29:26;;;;;;;5.25;0.98;;;15.20;99.90;;;;;;5112621;28;20055;-65
2022/10/19 11:31:54;;;;;;;8.18;1.38;;;15.30;99.90;;;;;;5120624;27;20526;-65
2022/10/19 11:34:51;;;;;;;8.38;1.40;;;15.60;99.90;;;;;;5119782;27;20183;-65
2022/10/19 11:37:34;;;;;;;6.53;1.10;;;15.60;99.90;;;;;;5128745;27;20054;-65
2022/10/19 11:40:07;;;;;;;10.13;1.35;;;15.40;99.90;;;;;;5117405;27;20077;-65
2022/10/19 11:43:21;;;;;;;5.47;1.10;;;15.40;99.90;;;;;;5123086;27;20101;-65
2022/10/19 11:45:49;;;;;;;8.63;1.08;;;16.00;99.90;;;;;;5070328;27;20487;-65
2022/10/19 11:48:33;;;;;;;7.50;1.20;;;16.00;98.50;;;;;;5118805;27;20427;-65
2022/10/19 11:51:14;;;;;;;9.73;1.30;;;15.70;98.70;;;;;;5117315;27;20078;-65
2022/10/19 11:54:08;;;;;;;7.32;1.10;;;15.30;99.10;;;;;;5124697;27;20066;-64
2022/10/19 11:56:45;;;;;;;6.60;0.68;;;14.90;99.70;;;;;;5119603;27;20374;-64
2022/10/19 11:59:48;;;;;;;6.40;1.13;;;14.60;99.90;;;;;;5122017;27;20112;-64
2022/10/19 12:02:35;;;;;;;8.80;1.58;;;14.40;99.90;;;;;;5125037;27;20108;-65
2022/10/19 12:05:08;;;;;;;6.10;0.88;;;14.30;99.90;;;;;;5119970;27;20046;-65
2022/10/19 12:07:52;;;;;;;8.13;0.85;;;14.40;99.90;;;;;;5122856;27;20410;-64
2022/10/19 12:10:49;;;;;;;6.00;1.15;;;14.50;99.90;;;;;;5118304;27;20055;-64
2022/10/19 12:13:19;;;;;;;7.10;0.75;;;14.60;99.90;;;;;;5123813;27;20044;-64
2022/10/19 12:15:52;;;;;;;5.78;0.73;;;14.60;99.90;;;;;;5116195;27;20044;-65
2022/10/19 12:18:49;;;;;;;8.00;1.23;;;14.60;99.90;;;;;;5118088;27;20034;-65
2022/10/19 12:21:29;;;;;;;5.00;0.70;;;14.50;99.90;;;;;;5118898;27;20419;-65
2022/10/19 12:23:59;;;;;;;9.90;1.27;;;14.50;99.90;;;;;;5120660;27;20036;-65
2022/10/19 12:26:29;;;;;;;6.25;0.90;;;14.40;99.90;;;;;;5116741;27;20047;-65
2022/10/19 12:28:58;;;;;;;5.90;0.77;;;14.50;99.90;;;;;;5124017;27;20490;-65
2022/10/19 12:31:25;;;;;;;5.07;0.80;;;14.50;99.90;;;;;;5120905;27;20536;-65
2022/10/19 12:34:28;;;;;;;7.03;1.10;;;14.40;99.90;;;;;;5121651;27;20120;-64
2022/10/19 12:37:19;;;;;;;7.60;1.38;;;14.40;99.90;;;;;;5122510;27;20343;-65
2022/10/19 12:40:02;;;;;;;5.55;0.90;;;14.20;99.90;;;;;;5088735;27;20047;-65
2022/10/19 12:42:52;;;;;;;7.03;1.10;;;14.10;99.90;;;;;;5124454;27;20031;-65
2022/10/19 12:45:44;;;;;;;6.88;0.98;;;14.20;99.90;;;;;;5121238;27;20119;-65
2022/10/19 12:48:10;;;;;;;8.15;0.80;;;14.20;99.90;;;;;;5113861;27;20055;-64
2022/10/19 12:50:47;;;;;;;7.00;1.00;;;14.20;99.90;;;;;;5122871;27;20576;-65
2022/10/19 12:53:37;;;;;;;5.70;1.00;;;14.20;99.90;;;;;;5125751;27;20112;-65
2022/10/19 12:56:08;;;;;;;7.65;1.20;;;14.20;99.90;;;;;;5118041;27;20109;-65
2022/10/19 12:58:43;;;;;;;4.97;0.90;;;14.10;99.90;;;;;;5118121;27;20039;-65
2022/10/19 13:01:15;;;;;;;5.18;1.17;;;14.10;99.90;;;;;;5123608;27;20116;-65
2022/10/19 13:03:43;;;;;;;6.65;0.88;;;13.90;99.90;;;;;;5122792;27;20038;-65
2022/10/19 13:06:29;;;;;;;5.72;0.82;;;13.80;99.90;;;;;;5122814;27;20398;-64
2022/10/19 13:09:01;;;;;;;7.20;1.25;;;13.70;99.90;;;;;;5122853;27;20555;-65